createdAt,value
2016-12-21T00:00:52.658Z,0.94
2016-12-21T00:01:52.621Z,0.87
2016-12-21T00:02:52.275Z,0.9
2016-12-21T00:03:52.230Z,0.87
2016-12-21T00:04:52.189Z,0.93
2016-12-21T00:05:52.147Z,0.94
2016-12-21T00:06:52.408Z,0.94
2016-12-21T00:07:52.364Z,0.96
2016-12-21T00:08:52.320Z,0.94
2016-12-21T00:09:51.982Z,1.02
2016-12-21T00:10:52.238Z,1.05
2016-12-21T00:11:52.197Z,0.97
2016-12-21T00:12:52.154Z,1.12
2016-12-21T00:13:52.138Z,1.05
2016-12-21T00:14:51.768Z,1.04
2016-12-21T00:15:52.026Z,0.97
2016-12-21T00:16:51.683Z,1.06
2016-12-21T00:17:51.946Z,1.04
2016-12-21T00:18:51.597Z,1.08
2016-12-21T00:19:51.869Z,1.06
2016-12-21T00:20:51.513Z,1.09
2016-12-21T00:21:51.774Z,0.97
2016-12-21T00:22:51.732Z,1.04
2016-12-21T00:23:51.416Z,0.91
2016-12-21T00:24:51.645Z,0.91
2016-12-21T00:25:51.632Z,0.83
2016-12-21T00:26:51.563Z,0.84
2016-12-21T00:27:51.522Z,0.86
2016-12-21T00:28:51.180Z,0.88
2016-12-21T00:29:51.434Z,0.84
2016-12-21T00:30:51.090Z,0.91
2016-12-21T00:31:51.347Z,0.86
2016-12-21T00:32:51.007Z,0.84
2016-12-21T00:33:51.270Z,0.96
2016-12-21T00:34:50.923Z,0.87
2016-12-21T00:35:50.880Z,0.96
2016-12-21T00:36:50.836Z,0.91
2016-12-21T00:37:51.101Z,0.93
2016-12-21T00:38:50.750Z,0.91
2016-12-21T00:39:51.015Z,0.96
2016-12-21T00:40:50.969Z,0.98
2016-12-21T00:41:50.932Z,1
2016-12-21T00:42:50.885Z,0.97
2016-12-21T00:43:50.841Z,0.98
2016-12-21T00:44:50.800Z,0.97
2016-12-21T00:45:50.459Z,0.88
2016-12-21T00:46:50.714Z,1.08
2016-12-21T00:47:50.389Z,0.96
2016-12-21T00:48:50.631Z,1
2016-12-21T00:49:50.288Z,1.06
2016-12-21T00:50:50.251Z,1
2016-12-21T00:51:50.503Z,0.94
2016-12-21T00:52:50.466Z,1.04
2016-12-21T00:53:50.120Z,0.97
2016-12-21T00:54:50.078Z,0.96
2016-12-21T00:55:50.033Z,0.93
2016-12-21T00:56:49.995Z,0.96
2016-12-21T00:57:50.250Z,0.91
2016-12-21T00:58:49.606Z,0.93
2016-12-21T00:59:50.170Z,0.97
2016-12-21T01:00:49.825Z,0.91
2016-12-21T01:01:49.780Z,0.9
2016-12-21T01:02:50.039Z,0.97
2016-12-21T01:03:49.697Z,0.93
2016-12-21T01:04:49.953Z,0.96
2016-12-21T01:05:49.616Z,0.93
2016-12-21T01:06:49.868Z,0.94
2016-12-21T01:07:49.829Z,0.94
2016-12-21T01:08:49.486Z,0.93
2016-12-21T01:09:49.742Z,0.91
2016-12-21T01:10:49.701Z,0.96
2016-12-21T01:11:49.664Z,0.96
2016-12-21T01:12:49.012Z,0.93
2016-12-21T01:13:49.573Z,0.96
2016-12-21T01:14:49.532Z,0.94
2016-12-21T01:15:49.188Z,0.94
2016-12-21T01:16:49.143Z,0.86
2016-12-21T01:17:49.405Z,0.93
2016-12-21T01:18:49.368Z,0.96
2016-12-21T01:19:49.017Z,0.9
2016-12-21T01:20:49.275Z,0.9
2016-12-21T01:21:49.234Z,0.96
2016-12-21T01:22:49.192Z,0.87
2016-12-21T01:23:49.150Z,0.87
2016-12-21T01:24:48.810Z,0.94
2016-12-21T01:25:48.763Z,0.88
2016-12-21T01:26:48.722Z,0.94
2016-12-21T01:27:48.676Z,0.93
2016-12-21T01:28:48.333Z,0.93
2016-12-21T01:29:48.900Z,0.86
2016-12-21T01:30:48.852Z,0.93
2016-12-21T01:31:48.811Z,0.87
2016-12-21T01:32:48.472Z,0.87
2016-12-21T01:33:48.724Z,0.91
2016-12-21T01:34:48.384Z,0.93
2016-12-21T01:35:48.340Z,0.84
2016-12-21T01:36:48.604Z,0.86
2016-12-21T01:37:48.256Z,0.84
2016-12-21T01:38:48.216Z,0.83
2016-12-21T01:39:48.170Z,0.86
2016-12-21T01:40:48.429Z,0.84
2016-12-21T01:41:48.386Z,0.87
2016-12-21T01:42:48.345Z,0.73
2016-12-21T01:43:48.000Z,0.78
2016-12-21T01:44:48.259Z,0.79
2016-12-21T01:45:48.223Z,0.72
2016-12-21T01:46:48.214Z,0.88
2016-12-21T01:47:47.831Z,0.87
2016-12-21T01:48:48.093Z,0.83
2016-12-21T01:49:47.743Z,0.83
2016-12-21T01:50:48.013Z,0.83
2016-12-21T01:51:47.969Z,0.83
2016-12-21T01:52:47.621Z,0.87
2016-12-21T01:53:47.880Z,0.72
2016-12-21T01:54:47.535Z,0.8
2016-12-21T01:55:47.794Z,0.83
2016-12-21T01:56:47.754Z,0.86
2016-12-21T01:57:47.712Z,0.9
2016-12-21T01:58:47.663Z,0.83
2016-12-21T01:59:47.328Z,0.9
2016-12-21T02:00:47.582Z,0.83
2016-12-21T02:01:47.239Z,0.9
2016-12-21T02:02:47.200Z,0.84
2016-12-21T02:03:47.452Z,0.79
2016-12-21T02:04:47.440Z,0.83
2016-12-21T02:05:47.068Z,0.79
2016-12-21T02:06:47.327Z,0.83
2016-12-21T02:07:46.984Z,0.75
2016-12-21T02:08:46.975Z,0.78
2016-12-21T02:09:47.202Z,0.73
2016-12-21T02:10:47.162Z,0.61
2016-12-21T02:11:46.812Z,0.58
2016-12-21T02:12:46.771Z,0.47
2016-12-21T02:13:47.029Z,0.47
2016-12-21T02:14:46.987Z,0.51
2016-12-21T02:15:46.955Z,0.49
2016-12-21T02:16:46.902Z,0.42
2016-12-21T02:17:46.857Z,0.53
2016-12-21T02:18:46.516Z,0.61
2016-12-21T02:19:46.775Z,0.65
2016-12-21T02:20:46.131Z,0.58
2016-12-21T02:21:46.690Z,0.6
2016-12-21T02:22:46.651Z,0.65
2016-12-21T02:23:46.301Z,0.61
2016-12-21T02:24:45.964Z,0.65
2016-12-21T02:25:46.524Z,0.58
2016-12-21T02:26:46.476Z,0.73
2016-12-21T02:27:46.135Z,0.76
2016-12-21T02:28:46.388Z,0.73
2016-12-21T02:29:46.351Z,0.78
2016-12-21T02:30:46.306Z,0.75
2016-12-21T02:31:45.965Z,0.75
2016-12-21T02:32:46.220Z,0.8
2016-12-21T02:33:46.180Z,0.73
2016-12-21T02:34:45.836Z,0.7
2016-12-21T02:35:45.789Z,0.79
2016-12-21T02:36:46.053Z,0.76
2016-12-21T02:37:46.014Z,0.75
2016-12-21T02:38:45.969Z,0.76
2016-12-21T02:39:45.629Z,0.7
2016-12-21T02:40:45.885Z,0.79
2016-12-21T02:41:45.539Z,0.7
2016-12-21T02:42:45.493Z,0.72
2016-12-21T02:43:45.756Z,0.73
2016-12-21T02:44:45.411Z,0.83
2016-12-21T02:45:45.370Z,0.73
2016-12-21T02:46:45.627Z,0.76
2016-12-21T02:47:45.281Z,0.73
2016-12-21T02:48:45.547Z,0.73
2016-12-21T02:49:45.499Z,0.69
2016-12-21T02:50:45.454Z,0.7
2016-12-21T02:51:45.417Z,0.7
2016-12-21T02:52:45.375Z,0.76
2016-12-21T02:53:45.329Z,0.84
2016-12-21T02:54:45.283Z,0.75
2016-12-21T02:55:44.943Z,0.73
2016-12-21T02:56:45.204Z,0.76
2016-12-21T02:57:44.558Z,0.73
2016-12-21T02:58:45.117Z,0.75
2016-12-21T02:59:45.075Z,0.78
2016-12-21T03:00:45.033Z,0.75
2016-12-21T03:01:44.993Z,0.78
2016-12-21T03:02:44.950Z,0.7
2016-12-21T03:03:44.604Z,0.69
2016-12-21T03:04:44.859Z,0.69
2016-12-21T03:05:44.816Z,0.7
2016-12-21T03:06:44.475Z,0.73
2016-12-21T03:07:44.735Z,0.7
2016-12-21T03:08:44.694Z,0.73
2016-12-21T03:09:44.360Z,0.73
2016-12-21T03:10:44.607Z,0.68
2016-12-21T03:11:43.962Z,0.72
2016-12-21T03:12:43.924Z,0.73
2016-12-21T03:13:44.485Z,0.76
2016-12-21T03:14:44.436Z,0.75
2016-12-21T03:15:44.091Z,0.72
2016-12-21T03:16:44.350Z,0.66
2016-12-21T03:17:44.309Z,0.72
2016-12-21T03:18:43.967Z,0.76
2016-12-21T03:19:44.233Z,0.73
2016-12-21T03:20:44.180Z,0.78
2016-12-21T03:21:44.140Z,0.68
2016-12-21T03:22:43.796Z,0.76
2016-12-21T03:23:43.749Z,0.75
2016-12-21T03:24:43.412Z,0.7
2016-12-21T03:25:43.971Z,0.66
2016-12-21T03:26:43.628Z,0.68
2016-12-21T03:27:43.582Z,0.62
2016-12-21T03:28:43.842Z,0.58
2016-12-21T03:29:43.797Z,0.53
2016-12-21T03:30:43.754Z,0.53
2016-12-21T03:31:43.741Z,0.5
2016-12-21T03:32:43.671Z,0.51
2016-12-21T03:33:43.629Z,0.53
2016-12-21T03:34:43.584Z,0.49
2016-12-21T03:35:43.539Z,0.51
2016-12-21T03:36:43.500Z,0.49
2016-12-21T03:37:43.455Z,0.42
2016-12-21T03:38:43.112Z,0.57
2016-12-21T03:39:43.069Z,0.49
2016-12-21T03:40:43.031Z,0.5
2016-12-21T03:41:43.290Z,0.51
2016-12-21T03:42:42.941Z,0.44
2016-12-21T03:43:42.903Z,0.42
2016-12-21T03:44:42.855Z,0.51
2016-12-21T03:45:43.121Z,0.5
2016-12-21T03:46:42.773Z,0.66
2016-12-21T03:47:42.425Z,0.55
2016-12-21T03:48:42.382Z,0.58
2016-12-21T03:49:42.946Z,0.61
2016-12-21T03:50:42.905Z,0.62
2016-12-21T03:51:42.863Z,0.57
2016-12-21T03:52:42.824Z,0.58
2016-12-21T03:53:42.773Z,0.65
2016-12-21T03:54:42.734Z,0.61
2016-12-21T03:55:42.389Z,0.65
2016-12-21T03:56:42.046Z,0.68
2016-12-21T03:57:42.324Z,0.6
2016-12-21T03:58:42.566Z,0.62
2016-12-21T03:59:42.524Z,0.62
2016-12-21T04:00:42.508Z,0.55
2016-12-21T04:01:42.134Z,0.55
2016-12-21T04:02:42.394Z,0.46
2016-12-21T04:03:42.351Z,0.49
2016-12-21T04:04:42.309Z,0.49
2016-12-21T04:05:42.265Z,0.49
2016-12-21T04:06:42.225Z,0.5
2016-12-21T04:07:42.178Z,0.5
2016-12-21T04:08:42.142Z,0.47
2016-12-21T04:09:42.096Z,0.47
2016-12-21T04:10:41.750Z,0.44
2016-12-21T04:11:42.009Z,0.47
2016-12-21T04:12:41.970Z,0.47
2016-12-21T04:13:41.624Z,0.41
2016-12-21T04:14:41.889Z,0.39
2016-12-21T04:15:41.840Z,0.38
2016-12-21T04:16:41.502Z,0.47
2016-12-21T04:17:41.757Z,0.38
2016-12-21T04:18:41.411Z,0.39
2016-12-21T04:19:41.668Z,0.39
2016-12-21T04:20:41.324Z,0.41
2016-12-21T04:21:41.589Z,0.38
2016-12-21T04:22:41.544Z,0.46
2016-12-21T04:23:41.500Z,0.49
2016-12-21T04:24:41.155Z,0.39
2016-12-21T04:25:41.115Z,0.49
2016-12-21T04:26:41.068Z,0.51
2016-12-21T04:27:41.027Z,0.5
2016-12-21T04:28:41.290Z,0.44
2016-12-21T04:29:40.941Z,0.49
2016-12-21T04:30:41.200Z,0.5
2016-12-21T04:31:41.166Z,0.46
2016-12-21T04:32:41.115Z,0.47
2016-12-21T04:33:41.072Z,0.55
2016-12-21T04:34:40.440Z,0.5
2016-12-21T04:35:40.991Z,0.5
2016-12-21T04:36:40.946Z,0.5
2016-12-21T04:37:40.911Z,0.51
2016-12-21T04:38:40.862Z,0.49
2016-12-21T04:39:40.514Z,0.53
2016-12-21T04:40:40.477Z,0.46
2016-12-21T04:41:40.736Z,0.46
2016-12-21T04:42:40.693Z,0.47
2016-12-21T04:43:40.347Z,0.55
2016-12-21T04:44:40.610Z,0.55
2016-12-21T04:45:39.963Z,0.55
2016-12-21T04:46:40.221Z,0.58
2016-12-21T04:47:40.173Z,0.61
2016-12-21T04:49:40.399Z,0.46
2016-12-21T04:50:40.353Z,0.44
2016-12-21T04:51:40.008Z,0.35
2016-12-21T04:52:40.276Z,0.29
2016-12-21T04:53:40.222Z,0.29
2016-12-21T04:54:40.184Z,0.28
2016-12-21T04:55:40.138Z,0.24
2016-12-21T04:56:40.099Z,0.28
2016-12-21T04:57:40.055Z,0.29
2016-12-21T04:58:40.009Z,0.28
2016-12-21T04:59:39.666Z,0.33
2016-12-21T05:00:39.926Z,0.29
2016-12-21T05:01:39.583Z,0.31
2016-12-21T05:02:39.241Z,0.31
2016-12-21T05:03:39.496Z,0.29
2016-12-21T05:04:39.762Z,0.26
2016-12-21T05:05:39.417Z,0.26
2016-12-21T05:06:39.063Z,0.28
2016-12-21T05:07:39.631Z,0.28
2016-12-21T05:08:39.282Z,0.32
2016-12-21T05:09:39.240Z,0.31
2016-12-21T05:10:39.199Z,0.32
2016-12-21T05:11:39.186Z,0.17
2016-12-21T05:12:39.118Z,0.29
2016-12-21T05:13:39.067Z,0.26
2016-12-21T05:14:39.330Z,0.39
2016-12-21T05:15:39.285Z,0.33
2016-12-21T05:16:38.942Z,0.33
2016-12-21T05:17:39.205Z,0.42
2016-12-21T05:18:39.160Z,0.41
2016-12-21T05:19:39.117Z,0.44
2016-12-21T05:20:38.772Z,0.39
2016-12-21T05:21:39.031Z,0.44
2016-12-21T05:22:38.987Z,0.33
2016-12-21T05:23:38.939Z,0.29
2016-12-21T05:24:38.605Z,0.28
2016-12-21T05:25:38.860Z,0.29
2016-12-21T05:26:38.815Z,0.35
2016-12-21T05:27:38.773Z,0.31
2016-12-21T05:28:38.433Z,0.38
2016-12-21T05:29:38.688Z,0.44
2016-12-21T05:30:38.343Z,0.35
2016-12-21T05:31:38.300Z,0.35
2016-12-21T05:32:38.265Z,0.39
2016-12-21T05:33:38.523Z,0.39
2016-12-21T05:34:38.478Z,0.44
2016-12-21T05:35:38.429Z,0.32
2016-12-21T05:36:38.389Z,0.44
2016-12-21T05:37:37.745Z,0.41
2016-12-21T05:38:38.005Z,0.36
2016-12-21T05:39:37.659Z,0.29
2016-12-21T05:40:38.227Z,0.31
2016-12-21T05:41:37.879Z,0.31
2016-12-21T05:42:38.134Z,0.29
2016-12-21T05:43:38.092Z,0.24
2016-12-21T05:44:38.047Z,0.31
2016-12-21T05:45:37.705Z,0.24
2016-12-21T05:46:37.663Z,0.23
2016-12-21T05:47:37.926Z,0.26
2016-12-21T05:48:37.879Z,0.29
2016-12-21T05:49:37.838Z,0.29
2016-12-21T05:50:37.492Z,0.41
2016-12-21T05:51:37.449Z,0.35
2016-12-21T05:52:37.709Z,0.36
2016-12-21T05:53:37.671Z,0.39
2016-12-21T05:54:37.628Z,0.38
2016-12-21T05:55:37.578Z,0.47
2016-12-21T05:56:37.537Z,0.46
2016-12-21T05:57:37.193Z,0.49
2016-12-21T05:58:37.149Z,0.42
2016-12-21T05:59:37.409Z,0.53
2016-12-21T06:00:37.372Z,0.5
2016-12-21T06:01:37.030Z,0.47
2016-12-21T06:02:37.291Z,0.47
2016-12-21T06:03:37.237Z,0.46
2016-12-21T06:04:36.899Z,0.41
2016-12-21T06:05:37.157Z,0.39
2016-12-21T06:06:36.807Z,0.49
2016-12-21T06:07:36.771Z,0.46
2016-12-21T06:08:37.024Z,0.46
2016-12-21T06:09:36.680Z,0.47
2016-12-21T06:10:36.640Z,0.47
2016-12-21T06:11:36.900Z,0.47
2016-12-21T06:12:36.555Z,0.49
2016-12-21T06:13:36.511Z,0.44
2016-12-21T06:14:36.471Z,0.46
2016-12-21T06:15:36.728Z,0.49
2016-12-21T06:16:36.692Z,0.53
2016-12-21T06:17:36.639Z,0.44
2016-12-21T06:18:36.603Z,0.47
2016-12-21T06:19:35.955Z,0.5
2016-12-21T06:20:36.512Z,0.5
2016-12-21T06:21:36.475Z,0.44
2016-12-21T06:22:36.429Z,0.46
2016-12-21T06:23:36.391Z,0.47
2016-12-21T06:24:36.343Z,0.42
2016-12-21T06:25:35.697Z,0.49
2016-12-21T06:26:35.955Z,0.5
2016-12-21T06:27:35.914Z,0.47
2016-12-21T06:28:36.170Z,0.46
2016-12-21T06:29:36.125Z,0.49
2016-12-21T06:30:36.083Z,0.46
2016-12-21T06:31:36.045Z,0.46
2016-12-21T06:32:36.003Z,0.51
2016-12-21T06:33:35.959Z,0.53
2016-12-21T06:34:35.616Z,0.53
2016-12-21T06:35:35.883Z,0.53
2016-12-21T06:36:35.529Z,0.53
2016-12-21T06:37:35.796Z,0.51
2016-12-21T06:38:35.478Z,0.5
2016-12-21T06:39:35.399Z,0.49
2016-12-21T06:40:35.059Z,0.49
2016-12-21T06:41:35.016Z,0.46
2016-12-21T06:42:35.573Z,0.5
2016-12-21T06:43:35.269Z,0.47
2016-12-21T06:44:35.492Z,0.49
2016-12-21T06:45:35.449Z,0.51
2016-12-21T06:46:35.106Z,0.5
2016-12-21T06:47:35.364Z,0.55
2016-12-21T06:48:35.017Z,0.53
2016-12-21T06:49:35.280Z,0.42
2016-12-21T06:50:35.241Z,0.57
2016-12-21T06:51:35.193Z,0.58
2016-12-21T06:52:35.146Z,0.51
2016-12-21T06:53:35.106Z,0.58
2016-12-21T06:54:35.063Z,0.51
2016-12-21T06:55:35.024Z,0.57
2016-12-21T06:56:34.982Z,0.53
2016-12-21T06:57:34.936Z,0.57
2016-12-21T06:58:34.892Z,0.57
2016-12-21T06:59:34.856Z,0.58
2016-12-21T07:00:34.806Z,0.55
2016-12-21T07:01:34.467Z,0.57
2016-12-21T07:02:34.728Z,0.61
2016-12-21T07:03:34.677Z,0.62
2016-12-21T07:04:34.639Z,0.61
2016-12-21T07:05:34.302Z,0.58
2016-12-21T07:06:34.558Z,0.68
2016-12-21T07:07:34.511Z,0.57
2016-12-21T07:08:34.163Z,0.61
2016-12-21T07:09:34.425Z,0.65
2016-12-21T07:10:34.389Z,0.65
2016-12-21T07:11:34.038Z,0.68
2016-12-21T07:12:34.298Z,0.6
2016-12-21T07:13:33.653Z,0.61
2016-12-21T07:14:34.210Z,0.58
2016-12-21T07:15:34.169Z,0.62
2016-12-21T07:16:33.827Z,0.58
2016-12-21T07:17:34.083Z,0.6
2016-12-21T07:18:33.744Z,0.57
2016-12-21T07:19:34.003Z,0.62
2016-12-21T07:20:33.654Z,0.61
2016-12-21T07:21:33.913Z,0.62
2016-12-21T07:22:33.871Z,0.6
2016-12-21T07:23:33.827Z,0.57
2016-12-21T07:24:33.790Z,0.55
2016-12-21T07:25:33.743Z,0.6
2016-12-21T07:26:33.704Z,0.58
2016-12-21T07:27:33.661Z,0.57
2016-12-21T07:28:33.320Z,0.53
2016-12-21T07:29:33.270Z,0.53
2016-12-21T07:30:33.228Z,0.57
2016-12-21T07:31:33.189Z,0.57
2016-12-21T07:32:32.844Z,0.47
2016-12-21T07:33:33.404Z,0.53
2016-12-21T07:34:33.059Z,0.66
2016-12-21T07:35:33.317Z,0.55
2016-12-21T07:36:32.972Z,0.61
2016-12-21T07:37:33.234Z,0.58
2016-12-21T07:38:32.901Z,0.6
2016-12-21T07:39:32.847Z,0.61
2016-12-21T07:40:33.104Z,0.62
2016-12-21T07:41:32.763Z,0.7
2016-12-21T07:42:33.023Z,0.66
2016-12-21T07:43:32.678Z,0.69
2016-12-21T07:44:32.937Z,0.66
2016-12-21T07:45:32.593Z,0.61
2016-12-21T07:46:32.550Z,0.65
2016-12-21T07:47:32.807Z,0.66
2016-12-21T07:48:32.762Z,0.62
2016-12-21T07:49:32.422Z,0.62
2016-12-21T07:50:32.689Z,0.57
2016-12-21T07:51:32.340Z,0.65
2016-12-21T07:52:32.297Z,0.68
2016-12-21T07:53:32.249Z,0.69
2016-12-21T07:54:32.208Z,0.66
2016-12-21T07:55:32.171Z,0.65
2016-12-21T07:56:32.425Z,0.68
2016-12-21T07:57:32.389Z,0.72
2016-12-21T07:58:32.345Z,0.66
2016-12-21T07:59:32.299Z,0.78
2016-12-21T08:00:31.959Z,0.78
2016-12-21T08:01:31.912Z,0.76
2016-12-21T08:02:31.871Z,0.66
2016-12-21T08:03:32.131Z,0.73
2016-12-21T08:04:32.089Z,0.7
2016-12-21T08:05:32.045Z,0.76
2016-12-21T08:06:31.397Z,0.69
2016-12-21T08:07:31.962Z,0.7
2016-12-21T08:08:31.916Z,0.75
2016-12-21T08:09:31.876Z,0.72
2016-12-21T08:10:31.831Z,0.72
2016-12-21T08:11:31.797Z,0.73
2016-12-21T08:12:31.446Z,0.79
2016-12-21T08:13:31.417Z,0.73
2016-12-21T08:14:31.668Z,0.72
2016-12-21T08:15:31.620Z,0.9
2016-12-21T08:16:31.278Z,0.94
2016-12-21T08:17:31.233Z,0.84
2016-12-21T08:18:31.192Z,0.96
2016-12-21T08:19:31.458Z,0.91
2016-12-21T08:20:31.409Z,0.96
2016-12-21T08:21:31.370Z,1.05
2016-12-21T08:22:31.324Z,1.04
2016-12-21T08:23:30.982Z,1.02
2016-12-21T08:24:30.937Z,1.06
2016-12-21T08:25:31.201Z,1.04
2016-12-21T08:26:30.853Z,1.08
2016-12-21T08:27:30.810Z,1.08
2016-12-21T08:28:30.769Z,1.05
2016-12-21T08:29:30.424Z,1.04
2016-12-21T08:30:30.984Z,1.11
2016-12-21T08:31:30.939Z,1.18
2016-12-21T08:32:30.598Z,1.15
2016-12-21T08:33:30.860Z,1.15
2016-12-21T08:34:30.818Z,1.12
2016-12-21T08:35:30.474Z,1.16
2016-12-21T08:36:30.736Z,1.18
2016-12-21T08:37:30.382Z,1.23
2016-12-21T08:38:30.340Z,1.16
2016-12-21T08:39:30.000Z,1.23
2016-12-21T08:40:30.561Z,1.15
2016-12-21T08:41:30.217Z,1.18
2016-12-21T08:42:29.875Z,1.29
2016-12-21T08:43:30.130Z,1.22
2016-12-21T08:44:30.416Z,1.22
2016-12-21T08:45:30.047Z,1.3
2016-12-21T08:46:30.312Z,1.14
2016-12-21T08:47:29.961Z,1.18
2016-12-21T08:48:29.614Z,1.33
2016-12-21T08:49:30.184Z,1.33
2016-12-21T08:50:30.139Z,1.22
2016-12-21T08:51:29.490Z,1.22
2016-12-21T08:52:30.052Z,1.2
2016-12-21T08:53:29.708Z,1.29
2016-12-21T08:54:29.666Z,1.27
2016-12-21T08:55:29.923Z,1.33
2016-12-21T08:56:29.887Z,1.27
2016-12-21T08:57:29.839Z,1.41
2016-12-21T08:58:29.498Z,1.33
2016-12-21T08:59:29.754Z,1.34
2016-12-21T09:00:29.712Z,1.42
2016-12-21T09:01:29.672Z,1.3
2016-12-21T09:02:29.331Z,1.36
2016-12-21T09:03:29.284Z,1.44
2016-12-21T09:04:29.573Z,1.41
2016-12-21T09:05:29.202Z,1.34
2016-12-21T09:06:29.467Z,1.47
2016-12-21T09:07:29.428Z,1.44
2016-12-21T09:08:29.373Z,1.44
2016-12-21T09:09:29.342Z,1.48
2016-12-21T09:10:28.688Z,1.5
2016-12-21T09:11:29.253Z,1.52
2016-12-21T09:12:28.604Z,1.55
2016-12-21T09:13:28.866Z,1.59
2016-12-21T09:14:28.820Z,1.47
2016-12-21T09:15:29.084Z,1.54
2016-12-21T09:16:29.036Z,1.6
2016-12-21T09:17:29.002Z,1.54
2016-12-21T09:18:28.958Z,1.59
2016-12-21T09:19:28.316Z,1.52
2016-12-21T09:20:28.571Z,1.55
2016-12-21T09:21:28.829Z,1.58
2016-12-21T09:22:28.502Z,1.6
2016-12-21T09:23:28.139Z,1.52
2016-12-21T09:24:28.098Z,1.63
2016-12-21T09:25:28.659Z,1.59
2016-12-21T09:26:28.617Z,1.6
2016-12-21T09:27:28.275Z,1.65
2016-12-21T09:28:28.537Z,1.58
2016-12-21T09:29:28.493Z,1.59
2016-12-21T09:30:28.453Z,1.59
2016-12-21T09:31:28.415Z,1.63
2016-12-21T09:32:28.066Z,1.55
2016-12-21T09:33:28.025Z,1.63
2016-12-21T09:34:28.285Z,1.59
2016-12-21T09:35:28.238Z,1.59
2016-12-21T09:36:28.192Z,1.68
2016-12-21T09:37:27.857Z,1.68
2016-12-21T09:38:27.812Z,1.7
2016-12-21T09:39:28.084Z,1.72
2016-12-21T09:40:27.729Z,1.69
2016-12-21T09:41:27.989Z,1.79
2016-12-21T09:42:27.949Z,1.8
2016-12-21T09:43:27.608Z,1.86
2016-12-21T09:44:27.865Z,1.83
2016-12-21T09:45:27.829Z,1.81
2016-12-21T09:46:27.790Z,1.86
2016-12-21T09:47:27.740Z,1.83
2016-12-21T09:48:27.695Z,1.9
2016-12-21T09:49:27.078Z,1.95
2016-12-21T09:50:27.315Z,1.91
2016-12-21T09:51:27.573Z,1.93
2016-12-21T09:52:27.526Z,1.9
2016-12-21T09:53:27.490Z,1.93
2016-12-21T09:54:27.143Z,1.93
2016-12-21T09:55:27.414Z,1.99
2016-12-21T09:56:27.364Z,1.87
2016-12-21T09:57:27.327Z,1.93
2016-12-21T09:58:27.277Z,1.91
2016-12-21T09:59:26.938Z,1.98
2016-12-21T10:00:26.899Z,1.9
2016-12-21T10:01:26.852Z,2.06
2016-12-21T10:02:26.810Z,2.05
2016-12-21T10:03:26.771Z,2.03
2016-12-21T10:04:27.036Z,2.07
2016-12-21T10:05:26.686Z,2.05
2016-12-21T10:06:26.643Z,2.12
2016-12-21T10:07:26.902Z,2.17
2016-12-21T10:08:26.861Z,2.21
2016-12-21T10:09:26.519Z,2.14
2016-12-21T10:10:26.177Z,2.18
2016-12-21T10:11:26.733Z,2.2
2016-12-21T10:12:26.696Z,2.16
2016-12-21T10:13:26.347Z,2.17
2016-12-21T10:14:26.613Z,2.21
2016-12-21T10:15:26.271Z,2.21
2016-12-21T10:16:26.229Z,2.23
2016-12-21T10:17:26.487Z,2.3
2016-12-21T10:18:26.143Z,2.35
2016-12-21T10:19:26.106Z,2.27
2016-12-21T10:20:26.058Z,2.27
2016-12-21T10:21:26.018Z,2.3
2016-12-21T10:22:26.290Z,2.28
2016-12-21T10:23:25.937Z,2.3
2016-12-21T10:24:26.204Z,2.28
2016-12-21T10:25:26.156Z,2.28
2016-12-21T10:26:25.817Z,2.35
2016-12-21T10:27:26.073Z,2.35
2016-12-21T10:28:26.032Z,2.35
2016-12-21T10:29:25.994Z,2.36
2016-12-21T10:30:25.643Z,2.34
2016-12-21T10:31:25.606Z,2.36
2016-12-21T10:32:25.562Z,2.42
2016-12-21T10:33:25.529Z,2.36
2016-12-21T10:34:25.178Z,2.48
2016-12-21T10:35:25.442Z,2.46
2016-12-21T10:36:25.703Z,2.48
2016-12-21T10:37:25.660Z,2.56
2016-12-21T10:38:25.614Z,2.48
2016-12-21T10:39:25.577Z,2.56
2016-12-21T10:40:25.538Z,2.53
2016-12-21T10:41:25.197Z,2.43
2016-12-21T10:42:25.152Z,2.41
2016-12-21T10:43:25.415Z,2.54
2016-12-21T10:44:25.064Z,2.56
2016-12-21T10:45:25.330Z,2.57
2016-12-21T10:46:24.983Z,2.56
2016-12-21T10:47:25.246Z,2.48
2016-12-21T10:48:25.239Z,2.52
2016-12-21T10:49:24.865Z,2.49
2016-12-21T10:50:25.152Z,2.53
2016-12-21T10:51:24.788Z,2.54
2016-12-21T10:52:25.036Z,2.49
2016-12-21T10:53:24.999Z,2.56
2016-12-21T10:54:24.666Z,2.6
2016-12-21T10:55:24.939Z,2.54
2016-12-21T10:56:24.572Z,2.56
2016-12-21T10:57:24.542Z,2.57
2016-12-21T10:58:24.793Z,2.66
2016-12-21T10:59:24.447Z,2.56
2016-12-21T11:00:24.727Z,2.61
2016-12-21T11:01:24.665Z,2.64
2016-12-21T11:02:24.630Z,2.53
2016-12-21T11:03:24.283Z,2.52
2016-12-21T11:04:24.240Z,2.56
2016-12-21T11:05:24.200Z,2.59
2016-12-21T11:06:24.161Z,2.6
2016-12-21T11:07:24.116Z,2.49
2016-12-21T11:08:23.775Z,2.66
2016-12-21T11:09:24.340Z,2.63
2016-12-21T11:10:23.689Z,2.6
2016-12-21T11:11:24.255Z,2.38
2016-12-21T11:12:24.217Z,2.36
2016-12-21T11:13:24.170Z,2.34
2016-12-21T11:14:24.128Z,2.45
2016-12-21T11:15:24.088Z,2.48
2016-12-21T11:16:23.754Z,2.56
2016-12-21T11:17:24.008Z,2.56
2016-12-21T11:18:23.963Z,2.61
2016-12-21T11:19:23.922Z,2.72
2016-12-21T11:20:23.588Z,2.72
2016-12-21T11:21:23.235Z,2.75
2016-12-21T11:22:23.801Z,2.82
2016-12-21T11:23:23.762Z,2.81
2016-12-21T11:24:23.716Z,2.81
2016-12-21T11:25:23.378Z,2.79
2016-12-21T11:26:23.642Z,2.79
2016-12-21T11:27:23.595Z,2.85
2016-12-21T11:28:23.553Z,2.81
2016-12-21T11:29:23.507Z,2.81
2016-12-21T11:30:23.472Z,2.9
2016-12-21T11:31:23.126Z,2.87
2016-12-21T11:32:23.388Z,2.87
2016-12-21T11:33:23.345Z,2.78
2016-12-21T11:34:23.302Z,2.87
2016-12-21T11:35:23.260Z,2.92
2016-12-21T11:36:23.220Z,2.9
2016-12-21T11:37:22.881Z,2.89
2016-12-21T11:38:22.838Z,2.84
2016-12-21T11:39:23.099Z,2.85
2016-12-21T11:40:22.754Z,2.97
2016-12-21T11:41:23.013Z,2.95
2016-12-21T11:42:22.977Z,2.82
2016-12-21T11:43:22.629Z,2.82
2016-12-21T11:44:22.894Z,2.85
2016-12-21T11:45:22.552Z,2.82
2016-12-21T11:46:22.511Z,2.89
2016-12-21T11:47:22.771Z,2.78
2016-12-21T11:48:22.433Z,2.82
2016-12-21T11:49:22.086Z,2.78
2016-12-21T11:50:22.045Z,2.85
2016-12-21T11:51:22.613Z,2.79
2016-12-21T11:52:22.567Z,2.84
2016-12-21T11:53:22.526Z,2.75
2016-12-21T11:54:22.482Z,2.87
2016-12-21T11:55:22.449Z,2.77
2016-12-21T11:56:22.099Z,2.81
2016-12-21T11:57:22.362Z,2.77
2016-12-21T11:58:22.319Z,2.75
2016-12-21T11:59:22.277Z,2.89
2016-12-21T12:00:22.237Z,2.79
2016-12-21T12:01:21.895Z,2.82
2016-12-21T12:02:21.855Z,2.87
2016-12-21T12:03:22.115Z,2.84
2016-12-21T12:04:22.074Z,2.95
2016-12-21T12:05:22.030Z,2.9
2016-12-21T12:06:21.989Z,2.79
2016-12-21T12:07:21.647Z,2.81
2016-12-21T12:08:21.606Z,2.81
2016-12-21T12:09:21.567Z,2.84
2016-12-21T12:10:21.523Z,2.79
2016-12-21T12:11:21.785Z,2.71
2016-12-21T12:12:21.754Z,2.64
2016-12-21T12:13:21.703Z,2.66
2016-12-21T12:14:21.661Z,2.66
2016-12-21T12:15:21.322Z,2.67
2016-12-21T12:16:20.976Z,2.66
2016-12-21T12:17:21.536Z,2.63
2016-12-21T12:18:21.497Z,2.64
2016-12-21T12:19:21.155Z,2.59
2016-12-21T12:20:21.421Z,2.57
2016-12-21T12:21:21.376Z,2.43
2016-12-21T12:22:21.329Z,2.43
2016-12-21T12:23:21.288Z,2.48
2016-12-21T12:24:20.951Z,2.49
2016-12-21T12:25:20.912Z,2.53
2016-12-21T12:26:21.170Z,2.45
2016-12-21T12:27:20.825Z,2.45
2016-12-21T12:28:20.790Z,2.45
2016-12-21T12:29:20.751Z,2.42
2016-12-21T12:30:21.003Z,2.46
2016-12-21T12:31:20.966Z,2.46
2016-12-21T12:32:20.627Z,2.49
2016-12-21T12:33:20.888Z,2.49
2016-12-21T12:34:20.843Z,2.43
2016-12-21T12:35:20.494Z,2.57
2016-12-21T12:36:20.790Z,2.64
2016-12-21T12:37:20.726Z,2.66
2016-12-21T12:38:20.374Z,2.67
2016-12-21T12:39:20.639Z,2.75
2016-12-21T12:40:20.600Z,2.72
2016-12-21T12:41:20.565Z,2.74
2016-12-21T12:42:19.906Z,2.75
2016-12-21T12:43:20.472Z,2.69
2016-12-21T12:44:20.426Z,2.69
2016-12-21T12:45:20.383Z,2.66
2016-12-21T12:46:20.039Z,2.6
2016-12-21T12:47:20.006Z,2.28
2016-12-21T12:48:20.263Z,2.2
2016-12-21T12:49:19.924Z,2.17
2016-12-21T12:50:19.881Z,2.14
2016-12-21T12:51:19.836Z,2.07
2016-12-21T12:52:20.097Z,2.02
2016-12-21T12:53:19.784Z,2.02
2016-12-21T12:54:19.716Z,2.03
2016-12-21T12:55:19.981Z,1.98
2016-12-21T12:56:19.630Z,1.95
2016-12-21T12:57:19.892Z,1.93
2016-12-21T12:58:19.250Z,1.9
2016-12-21T12:59:19.512Z,1.95
2016-12-21T13:00:19.464Z,2.03
2016-12-21T13:01:19.736Z,2
2016-12-21T13:02:19.686Z,2.12
2016-12-21T13:03:19.342Z,2.14
2016-12-21T13:04:19.602Z,2.07
2016-12-21T13:05:19.256Z,2.07
2016-12-21T13:06:19.541Z,2.14
2016-12-21T13:07:19.173Z,2.17
2016-12-21T13:08:19.133Z,2.34
2016-12-21T13:09:19.402Z,2.23
2016-12-21T13:10:19.354Z,2.27
2016-12-21T13:11:19.309Z,2.25
2016-12-21T13:12:18.965Z,2.38
2016-12-21T13:13:19.232Z,2.27
2016-12-21T13:14:19.193Z,2.38
2016-12-21T13:15:18.842Z,2.41
2016-12-21T13:16:19.109Z,2.38
2016-12-21T13:17:19.073Z,2.35
2016-12-21T13:18:18.719Z,2.34
2016-12-21T13:19:18.376Z,2.17
2016-12-21T13:20:18.935Z,2.23
2016-12-21T13:21:18.895Z,2.21
2016-12-21T13:22:18.852Z,2.31